sensor_id;sensor_type;location;lat;lon;timestamp;P1;durP1;ratioP1;P2;durP2;ratioP2
15486;SDS011;7845;53.698;10.078;2023-03-01T00:02:19;4.43;;;2.13;;
15486;SDS011;7845;53.698;10.078;2023-03-01T00:04:45;5.97;;;2.93;;
15486;SDS011;7845;53.698;10.078;2023-03-01T00:07:10;6.13;;;2.80;;
15486;SDS011;7845;53.698;10.078;2023-03-01T00:09:36;5.40;;;2.70;;
15486;SDS011;7845;53.698;10.078;2023-03-01T00:12:02;4.67;;;1.80;;
15486;SDS011;7845;53.698;10.078;2023-03-01T00:14:28;4.80;;;2.17;;
15486;SDS011;7845;53.698;10.078;2023-03-01T00:16:53;5.10;;;2.13;;
15486;SDS011;7845;53.698;10.078;2023-03-01T00:19:20;4.57;;;1.77;;
15486;SDS011;7845;53.698;10.078;2023-03-01T00:21:47;5.70;;;2.60;;
15486;SDS011;7845;53.698;10.078;2023-03-01T00:24:13;5.00;;;2.30;;
15486;SDS011;7845;53.698;10.078;2023-03-01T00:26:41;6.40;;;3.20;;
15486;SDS011;7845;53.698;10.078;2023-03-01T00:29:08;5.40;;;2.80;;
15486;SDS011;7845;53.698;10.078;2023-03-01T00:31:34;5.60;;;2.97;;
15486;SDS011;7845;53.698;10.078;2023-03-01T00:34:02;6.47;;;3.23;;
15486;SDS011;7845;53.698;10.078;2023-03-01T00:36:30;6.97;;;2.50;;
15486;SDS011;7845;53.698;10.078;2023-03-01T00:38:57;6.20;;;2.70;;
15486;SDS011;7845;53.698;10.078;2023-03-01T00:41:22;6.30;;;3.27;;
15486;SDS011;7845;53.698;10.078;2023-03-01T00:43:49;6.30;;;2.80;;
15486;SDS011;7845;53.698;10.078;2023-03-01T00:46:19;4.83;;;2.10;;
15486;SDS011;7845;53.698;10.078;2023-03-01T00:48:46;4.50;;;2.23;;
15486;SDS011;7845;53.698;10.078;2023-03-01T00:51:12;5.97;;;2.03;;
15486;SDS011;7845;53.698;10.078;2023-03-01T00:53:39;5.37;;;2.33;;
15486;SDS011;7845;53.698;10.078;2023-03-01T00:56:06;4.83;;;2.07;;
15486;SDS011;7845;53.698;10.078;2023-03-01T00:58:33;5.17;;;2.80;;
15486;SDS011;7845;53.698;10.078;2023-03-01T01:00:58;4.30;;;1.83;;
15486;SDS011;7845;53.698;10.078;2023-03-01T01:03:25;4.60;;;2.10;;
15486;SDS011;7845;53.698;10.078;2023-03-01T01:05:51;4.90;;;1.90;;
15486;SDS011;7845;53.698;10.078;2023-03-01T01:08:18;5.70;;;2.40;;
15486;SDS011;7845;53.698;10.078;2023-03-01T01:10:44;4.70;;;2.43;;
15486;SDS011;7845;53.698;10.078;2023-03-01T01:13:10;5.80;;;2.60;;
15486;SDS011;7845;53.698;10.078;2023-03-01T01:15:35;5.53;;;2.30;;
15486;SDS011;7845;53.698;10.078;2023-03-01T01:18:01;3.80;;;1.80;;
15486;SDS011;7845;53.698;10.078;2023-03-01T01:20:27;6.10;;;2.50;;
15486;SDS011;7845;53.698;10.078;2023-03-01T01:22:52;4.30;;;1.90;;
15486;SDS011;7845;53.698;10.078;2023-03-01T01:25:18;4.83;;;1.97;;
15486;SDS011;7845;53.698;10.078;2023-03-01T01:27:43;6.10;;;2.40;;
15486;SDS011;7845;53.698;10.078;2023-03-01T01:30:09;5.53;;;2.27;;
15486;SDS011;7845;53.698;10.078;2023-03-01T01:32:36;5.93;;;2.40;;
15486;SDS011;7845;53.698;10.078;2023-03-01T01:35:02;5.00;;;2.57;;
15486;SDS011;7845;53.698;10.078;2023-03-01T01:37:27;6.10;;;3.07;;
15486;SDS011;7845;53.698;10.078;2023-03-01T01:39:57;4.97;;;2.20;;
15486;SDS011;7845;53.698;10.078;2023-03-01T01:42:24;5.80;;;2.67;;
15486;SDS011;7845;53.698;10.078;2023-03-01T01:45:15;5.10;;;2.00;;
15486;SDS011;7845;53.698;10.078;2023-03-01T01:47:52;4.40;;;2.20;;
15486;SDS011;7845;53.698;10.078;2023-03-01T01:50:19;5.10;;;2.27;;
15486;SDS011;7845;53.698;10.078;2023-03-01T01:52:46;4.90;;;2.27;;
15486;SDS011;7845;53.698;10.078;2023-03-01T01:55:15;5.50;;;2.77;;
15486;SDS011;7845;53.698;10.078;2023-03-01T01:57:47;8.40;;;3.43;;
15486;SDS011;7845;53.698;10.078;2023-03-01T02:00:17;5.00;;;2.20;;
15486;SDS011;7845;53.698;10.078;2023-03-01T02:02:46;5.13;;;2.50;;
15486;SDS011;7845;53.698;10.078;2023-03-01T02:08:16;5.10;;;2.20;;
15486;SDS011;7845;53.698;10.078;2023-03-01T02:10:44;5.60;;;2.50;;
15486;SDS011;7845;53.698;10.078;2023-03-01T02:13:10;5.07;;;2.40;;
15486;SDS011;7845;53.698;10.078;2023-03-01T02:15:37;5.30;;;2.20;;
15486;SDS011;7845;53.698;10.078;2023-03-01T02:18:04;6.23;;;2.60;;
15486;SDS011;7845;53.698;10.078;2023-03-01T02:23:33;6.63;;;2.67;;
15486;SDS011;7845;53.698;10.078;2023-03-01T02:26:05;5.97;;;2.60;;
15486;SDS011;7845;53.698;10.078;2023-03-01T02:28:38;5.43;;;2.57;;
15486;SDS011;7845;53.698;10.078;2023-03-01T02:31:07;4.80;;;2.30;;
15486;SDS011;7845;53.698;10.078;2023-03-01T02:33:53;4.27;;;1.97;;
15486;SDS011;7845;53.698;10.078;2023-03-01T02:36:24;5.70;;;2.23;;
15486;SDS011;7845;53.698;10.078;2023-03-01T02:38:57;4.90;;;2.10;;
15486;SDS011;7845;53.698;10.078;2023-03-01T02:41:24;4.33;;;1.80;;
15486;SDS011;7845;53.698;10.078;2023-03-01T02:43:53;4.60;;;1.87;;
15486;SDS011;7845;53.698;10.078;2023-03-01T02:46:20;5.03;;;1.90;;
15486;SDS011;7845;53.698;10.078;2023-03-01T02:48:48;4.93;;;2.67;;
15486;SDS011;7845;53.698;10.078;2023-03-01T02:54:13;4.50;;;1.93;;
15486;SDS011;7845;53.698;10.078;2023-03-01T02:56:40;4.00;;;1.40;;
15486;SDS011;7845;53.698;10.078;2023-03-01T02:59:07;4.07;;;2.10;;
15486;SDS011;7845;53.698;10.078;2023-03-01T03:01:34;4.97;;;2.60;;
15486;SDS011;7845;53.698;10.078;2023-03-01T03:04:03;5.80;;;2.23;;
15486;SDS011;7845;53.698;10.078;2023-03-01T03:06:34;5.70;;;3.47;;
15486;SDS011;7845;53.698;10.078;2023-03-01T03:09:00;5.13;;;2.47;;
15486;SDS011;7845;53.698;10.078;2023-03-01T03:11:26;4.87;;;2.20;;
15486;SDS011;7845;53.698;10.078;2023-03-01T03:13:51;5.20;;;1.77;;
15486;SDS011;7845;53.698;10.078;2023-03-01T03:16:18;4.30;;;1.63;;
15486;SDS011;7845;53.698;10.078;2023-03-01T03:18:43;7.40;;;2.60;;
15486;SDS011;7845;53.698;10.078;2023-03-01T03:21:10;5.47;;;2.30;;
15486;SDS011;7845;53.698;10.078;2023-03-01T03:23:37;4.90;;;2.40;;
15486;SDS011;7845;53.698;10.078;2023-03-01T03:26:03;5.70;;;3.03;;
15486;SDS011;7845;53.698;10.078;2023-03-01T03:28:29;5.50;;;2.60;;
15486;SDS011;7845;53.698;10.078;2023-03-01T03:30:58;5.17;;;2.27;;
15486;SDS011;7845;53.698;10.078;2023-03-01T03:33:28;6.87;;;2.93;;
15486;SDS011;7845;53.698;10.078;2023-03-01T03:35:54;5.90;;;2.80;;
15486;SDS011;7845;53.698;10.078;2023-03-01T03:38:20;6.97;;;3.40;;
15486;SDS011;7845;53.698;10.078;2023-03-01T03:40:50;5.40;;;2.30;;
15486;SDS011;7845;53.698;10.078;2023-03-01T03:43:18;5.40;;;2.50;;
15486;SDS011;7845;53.698;10.078;2023-03-01T03:45:46;5.30;;;2.23;;
15486;SDS011;7845;53.698;10.078;2023-03-01T03:48:14;4.50;;;2.10;;
15486;SDS011;7845;53.698;10.078;2023-03-01T03:50:40;4.63;;;2.20;;
15486;SDS011;7845;53.698;10.078;2023-03-01T03:53:07;5.00;;;2.03;;
15486;SDS011;7845;53.698;10.078;2023-03-01T03:55:36;5.30;;;2.10;;
15486;SDS011;7845;53.698;10.078;2023-03-01T03:58:04;4.73;;;2.10;;
15486;SDS011;7845;53.698;10.078;2023-03-01T04:00:36;4.83;;;2.40;;
15486;SDS011;7845;53.698;10.078;2023-03-01T04:03:06;5.77;;;2.27;;
15486;SDS011;7845;53.698;10.078;2023-03-01T04:05:32;4.53;;;1.90;;
15486;SDS011;7845;53.698;10.078;2023-03-01T04:07:59;4.13;;;1.83;;
15486;SDS011;7845;53.698;10.078;2023-03-01T04:10:27;5.33;;;2.17;;
15486;SDS011;7845;53.698;10.078;2023-03-01T04:12:57;5.83;;;2.20;;
15486;SDS011;7845;53.698;10.078;2023-03-01T04:15:24;4.70;;;2.20;;
15486;SDS011;7845;53.698;10.078;2023-03-01T04:17:51;5.43;;;2.07;;
15486;SDS011;7845;53.698;10.078;2023-03-01T04:20:26;6.07;;;2.40;;
15486;SDS011;7845;53.698;10.078;2023-03-01T04:22:57;5.63;;;2.30;;
15486;SDS011;7845;53.698;10.078;2023-03-01T04:25:33;4.17;;;1.93;;
15486;SDS011;7845;53.698;10.078;2023-03-01T04:27:58;5.23;;;2.60;;
15486;SDS011;7845;53.698;10.078;2023-03-01T04:30:24;5.10;;;2.70;;
15486;SDS011;7845;53.698;10.078;2023-03-01T04:32:51;4.43;;;2.07;;
15486;SDS011;7845;53.698;10.078;2023-03-01T04:35:16;5.50;;;2.60;;
15486;SDS011;7845;53.698;10.078;2023-03-01T04:37:41;5.47;;;2.70;;
15486;SDS011;7845;53.698;10.078;2023-03-01T04:40:10;5.23;;;2.60;;
15486;SDS011;7845;53.698;10.078;2023-03-01T04:42:42;4.97;;;2.27;;
15486;SDS011;7845;53.698;10.078;2023-03-01T04:45:08;4.87;;;2.40;;
15486;SDS011;7845;53.698;10.078;2023-03-01T04:47:47;5.60;;;2.73;;
15486;SDS011;7845;53.698;10.078;2023-03-01T04:50:15;4.63;;;2.23;;
15486;SDS011;7845;53.698;10.078;2023-03-01T04:52:45;7.63;;;2.17;;
15486;SDS011;7845;53.698;10.078;2023-03-01T04:55:11;4.67;;;1.80;;
15486;SDS011;7845;53.698;10.078;2023-03-01T04:57:36;5.13;;;1.73;;
15486;SDS011;7845;53.698;10.078;2023-03-01T05:00:03;5.30;;;2.10;;
15486;SDS011;7845;53.698;10.078;2023-03-01T05:02:45;5.70;;;2.07;;
15486;SDS011;7845;53.698;10.078;2023-03-01T05:05:14;4.77;;;2.27;;
15486;SDS011;7845;53.698;10.078;2023-03-01T05:07:40;4.30;;;2.03;;
15486;SDS011;7845;53.698;10.078;2023-03-01T05:10:05;4.23;;;2.00;;
15486;SDS011;7845;53.698;10.078;2023-03-01T05:12:31;4.87;;;1.90;;
15486;SDS011;7845;53.698;10.078;2023-03-01T05:14:56;4.87;;;1.80;;
15486;SDS011;7845;53.698;10.078;2023-03-01T05:17:21;5.60;;;2.23;;
15486;SDS011;7845;53.698;10.078;2023-03-01T05:19:46;5.00;;;2.37;;
15486;SDS011;7845;53.698;10.078;2023-03-01T05:22:12;5.53;;;2.00;;
15486;SDS011;7845;53.698;10.078;2023-03-01T05:24:37;4.87;;;2.10;;
15486;SDS011;7845;53.698;10.078;2023-03-01T05:27:04;5.47;;;2.73;;
15486;SDS011;7845;53.698;10.078;2023-03-01T05:29:30;5.00;;;2.63;;
15486;SDS011;7845;53.698;10.078;2023-03-01T05:32:00;4.50;;;2.47;;
15486;SDS011;7845;53.698;10.078;2023-03-01T05:34:27;6.60;;;2.47;;
15486;SDS011;7845;53.698;10.078;2023-03-01T05:36:57;4.63;;;2.20;;
15486;SDS011;7845;53.698;10.078;2023-03-01T05:39:24;5.57;;;2.10;;
15486;SDS011;7845;53.698;10.078;2023-03-01T05:41:54;5.57;;;2.57;;
15486;SDS011;7845;53.698;10.078;2023-03-01T05:44:21;4.90;;;2.37;;
15486;SDS011;7845;53.698;10.078;2023-03-01T05:46:49;5.13;;;2.47;;
15486;SDS011;7845;53.698;10.078;2023-03-01T05:49:14;5.57;;;2.33;;
15486;SDS011;7845;53.698;10.078;2023-03-01T05:51:42;6.77;;;2.53;;
15486;SDS011;7845;53.698;10.078;2023-03-01T05:54:11;6.40;;;2.40;;
15486;SDS011;7845;53.698;10.078;2023-03-01T05:56:37;5.20;;;2.50;;
15486;SDS011;7845;53.698;10.078;2023-03-01T05:59:02;7.73;;;4.13;;
15486;SDS011;7845;53.698;10.078;2023-03-01T06:01:30;5.90;;;3.40;;
15486;SDS011;7845;53.698;10.078;2023-03-01T06:03:55;6.70;;;3.20;;
15486;SDS011;7845;53.698;10.078;2023-03-01T06:06:23;5.30;;;2.90;;
15486;SDS011;7845;53.698;10.078;2023-03-01T06:08:49;4.57;;;2.33;;
15486;SDS011;7845;53.698;10.078;2023-03-01T06:11:19;6.63;;;2.70;;
15486;SDS011;7845;53.698;10.078;2023-03-01T06:13:45;5.43;;;2.80;;
15486;SDS011;7845;53.698;10.078;2023-03-01T06:16:11;5.40;;;2.73;;
15486;SDS011;7845;53.698;10.078;2023-03-01T06:18:38;5.33;;;2.57;;
15486;SDS011;7845;53.698;10.078;2023-03-01T06:21:04;5.50;;;2.93;;
15486;SDS011;7845;53.698;10.078;2023-03-01T06:23:31;4.90;;;2.30;;
15486;SDS011;7845;53.698;10.078;2023-03-01T06:25:56;6.80;;;2.87;;
15486;SDS011;7845;53.698;10.078;2023-03-01T06:28:22;5.80;;;2.63;;
15486;SDS011;7845;53.698;10.078;2023-03-01T06:30:47;6.03;;;3.20;;
15486;SDS011;7845;53.698;10.078;2023-03-01T06:33:14;6.50;;;2.77;;
15486;SDS011;7845;53.698;10.078;2023-03-01T06:35:39;6.33;;;3.20;;
15486;SDS011;7845;53.698;10.078;2023-03-01T06:38:05;8.57;;;4.40;;
15486;SDS011;7845;53.698;10.078;2023-03-01T06:40:30;7.70;;;3.83;;
15486;SDS011;7845;53.698;10.078;2023-03-01T06:42:56;5.53;;;2.77;;
15486;SDS011;7845;53.698;10.078;2023-03-01T06:45:22;6.80;;;3.53;;
15486;SDS011;7845;53.698;10.078;2023-03-01T06:47:48;6.90;;;3.13;;
15486;SDS011;7845;53.698;10.078;2023-03-01T06:50:14;6.53;;;3.60;;
15486;SDS011;7845;53.698;10.078;2023-03-01T06:52:39;8.60;;;3.10;;
15486;SDS011;7845;53.698;10.078;2023-03-01T06:55:05;8.57;;;5.20;;
15486;SDS011;7845;53.698;10.078;2023-03-01T06:57:31;6.90;;;3.40;;
15486;SDS011;7845;53.698;10.078;2023-03-01T06:59:57;5.47;;;3.40;;
15486;SDS011;7845;53.698;10.078;2023-03-01T07:02:22;7.30;;;3.80;;
15486;SDS011;7845;53.698;10.078;2023-03-01T07:04:51;7.10;;;4.20;;
15486;SDS011;7845;53.698;10.078;2023-03-01T07:07:17;7.23;;;3.50;;
15486;SDS011;7845;53.698;10.078;2023-03-01T07:09:43;7.40;;;3.90;;
15486;SDS011;7845;53.698;10.078;2023-03-01T07:12:09;7.03;;;4.10;;
15486;SDS011;7845;53.698;10.078;2023-03-01T07:14:35;8.40;;;4.10;;
15486;SDS011;7845;53.698;10.078;2023-03-01T07:17:00;7.63;;;3.73;;
15486;SDS011;7845;53.698;10.078;2023-03-01T07:19:26;8.93;;;5.10;;
15486;SDS011;7845;53.698;10.078;2023-03-01T07:21:51;7.67;;;4.73;;
15486;SDS011;7845;53.698;10.078;2023-03-01T07:24:16;7.80;;;4.60;;
15486;SDS011;7845;53.698;10.078;2023-03-01T07:26:41;8.03;;;4.30;;
15486;SDS011;7845;53.698;10.078;2023-03-01T07:29:07;7.27;;;3.70;;
15486;SDS011;7845;53.698;10.078;2023-03-01T07:31:34;6.67;;;3.37;;
15486;SDS011;7845;53.698;10.078;2023-03-01T07:34:00;9.07;;;3.63;;
15486;SDS011;7845;53.698;10.078;2023-03-01T07:36:26;6.43;;;3.70;;
15486;SDS011;7845;53.698;10.078;2023-03-01T07:38:51;9.13;;;5.50;;
15486;SDS011;7845;53.698;10.078;2023-03-01T07:41:17;8.80;;;5.50;;
15486;SDS011;7845;53.698;10.078;2023-03-01T07:43:43;11.80;;;6.60;;
15486;SDS011;7845;53.698;10.078;2023-03-01T07:46:08;9.83;;;5.27;;
15486;SDS011;7845;53.698;10.078;2023-03-01T07:48:34;11.20;;;5.33;;
15486;SDS011;7845;53.698;10.078;2023-03-01T07:51:04;10.40;;;6.17;;
15486;SDS011;7845;53.698;10.078;2023-03-01T07:53:31;11.43;;;5.70;;
15486;SDS011;7845;53.698;10.078;2023-03-01T07:56:09;12.50;;;6.70;;
15486;SDS011;7845;53.698;10.078;2023-03-01T07:58:37;9.10;;;5.80;;
15486;SDS011;7845;53.698;10.078;2023-03-01T08:01:03;10.40;;;7.20;;
15486;SDS011;7845;53.698;10.078;2023-03-01T08:03:30;12.47;;;7.40;;
15486;SDS011;7845;53.698;10.078;2023-03-01T08:05:59;12.40;;;8.30;;
15486;SDS011;7845;53.698;10.078;2023-03-01T08:08:25;10.70;;;7.53;;
15486;SDS011;7845;53.698;10.078;2023-03-01T08:10:51;11.07;;;6.87;;
15486;SDS011;7845;53.698;10.078;2023-03-01T08:13:17;11.90;;;6.87;;
15486;SDS011;7845;53.698;10.078;2023-03-01T08:15:47;10.23;;;5.73;;
15486;SDS011;7845;53.698;10.078;2023-03-01T08:18:16;8.80;;;6.20;;
15486;SDS011;7845;53.698;10.078;2023-03-01T08:20:42;10.20;;;6.37;;
15486;SDS011;7845;53.698;10.078;2023-03-01T08:23:07;9.67;;;5.70;;
15486;SDS011;7845;53.698;10.078;2023-03-01T08:25:33;9.00;;;5.20;;
15486;SDS011;7845;53.698;10.078;2023-03-01T08:27:59;11.90;;;6.90;;
15486;SDS011;7845;53.698;10.078;2023-03-01T08:30:25;11.37;;;6.27;;
15486;SDS011;7845;53.698;10.078;2023-03-01T08:32:50;8.73;;;5.20;;
15486;SDS011;7845;53.698;10.078;2023-03-01T08:35:16;10.77;;;5.73;;
15486;SDS011;7845;53.698;10.078;2023-03-01T08:37:42;9.90;;;6.57;;
15486;SDS011;7845;53.698;10.078;2023-03-01T08:40:07;10.47;;;6.33;;
15486;SDS011;7845;53.698;10.078;2023-03-01T08:42:35;10.10;;;5.70;;
15486;SDS011;7845;53.698;10.078;2023-03-01T08:45:03;9.00;;;5.80;;
15486;SDS011;7845;53.698;10.078;2023-03-01T08:47:29;10.30;;;6.27;;
15486;SDS011;7845;53.698;10.078;2023-03-01T08:49:54;10.20;;;6.53;;
15486;SDS011;7845;53.698;10.078;2023-03-01T08:52:20;13.80;;;8.03;;
15486;SDS011;7845;53.698;10.078;2023-03-01T08:54:47;10.00;;;6.10;;
15486;SDS011;7845;53.698;10.078;2023-03-01T08:57:13;10.27;;;6.30;;
15486;SDS011;7845;53.698;10.078;2023-03-01T08:59:38;9.77;;;6.00;;
15486;SDS011;7845;53.698;10.078;2023-03-01T09:02:04;9.67;;;5.57;;
15486;SDS011;7845;53.698;10.078;2023-03-01T09:04:30;11.00;;;6.60;;
15486;SDS011;7845;53.698;10.078;2023-03-01T09:06:56;10.40;;;6.27;;
15486;SDS011;7845;53.698;10.078;2023-03-01T09:09:21;8.83;;;4.97;;
15486;SDS011;7845;53.698;10.078;2023-03-01T09:11:46;9.60;;;6.10;;
15486;SDS011;7845;53.698;10.078;2023-03-01T09:14:13;11.80;;;6.93;;
15486;SDS011;7845;53.698;10.078;2023-03-01T09:16:38;11.73;;;7.50;;
15486;SDS011;7845;53.698;10.078;2023-03-01T09:19:04;10.97;;;6.00;;
15486;SDS011;7845;53.698;10.078;2023-03-01T09:21:30;10.60;;;7.17;;
15486;SDS011;7845;53.698;10.078;2023-03-01T09:23:56;12.03;;;7.67;;
15486;SDS011;7845;53.698;10.078;2023-03-01T09:26:23;12.40;;;8.20;;
15486;SDS011;7845;53.698;10.078;2023-03-01T09:28:49;10.97;;;7.00;;
15486;SDS011;7845;53.698;10.078;2023-03-01T09:31:17;11.97;;;7.33;;
15486;SDS011;7845;53.698;10.078;2023-03-01T09:33:45;10.47;;;5.80;;
15486;SDS011;7845;53.698;10.078;2023-03-01T09:36:13;10.67;;;6.33;;
15486;SDS011;7845;53.698;10.078;2023-03-01T09:38:40;10.37;;;7.10;;
15486;SDS011;7845;53.698;10.078;2023-03-01T09:46:56;10.23;;;6.00;;
15486;SDS011;7845;53.698;10.078;2023-03-01T09:49:23;16.80;;;9.87;;
15486;SDS011;7845;53.698;10.078;2023-03-01T09:51:54;11.07;;;7.00;;
15486;SDS011;7845;53.698;10.078;2023-03-01T09:54:20;13.10;;;8.40;;
15486;SDS011;7845;53.698;10.078;2023-03-01T09:56:49;12.07;;;7.77;;
15486;SDS011;7845;53.698;10.078;2023-03-01T10:02:44;11.37;;;7.10;;
15486;SDS011;7845;53.698;10.078;2023-03-01T10:05:21;11.53;;;5.80;;
15486;SDS011;7845;53.698;10.078;2023-03-01T10:10:49;10.77;;;6.77;;
15486;SDS011;7845;53.698;10.078;2023-03-01T10:13:17;9.57;;;6.20;;
15486;SDS011;7845;53.698;10.078;2023-03-01T10:16:15;9.50;;;5.33;;
15486;SDS011;7845;53.698;10.078;2023-03-01T10:18:46;10.73;;;6.10;;
15486;SDS011;7845;53.698;10.078;2023-03-01T10:21:18;15.40;;;8.90;;
15486;SDS011;7845;53.698;10.078;2023-03-01T10:23:45;13.43;;;8.20;;
15486;SDS011;7845;53.698;10.078;2023-03-01T10:28:50;14.67;;;8.30;;
15486;SDS011;7845;53.698;10.078;2023-03-01T10:31:40;12.73;;;7.90;;
15486;SDS011;7845;53.698;10.078;2023-03-01T10:34:10;13.43;;;8.97;;
15486;SDS011;7845;53.698;10.078;2023-03-01T10:36:40;11.90;;;7.37;;
15486;SDS011;7845;53.698;10.078;2023-03-01T10:39:20;12.90;;;7.67;;
15486;SDS011;7845;53.698;10.078;2023-03-01T10:47:22;12.90;;;7.77;;
15486;SDS011;7845;53.698;10.078;2023-03-01T10:50:02;14.57;;;8.50;;
15486;SDS011;7845;53.698;10.078;2023-03-01T10:52:36;10.87;;;7.33;;
15486;SDS011;7845;53.698;10.078;2023-03-01T10:58:09;12.70;;;6.90;;
15486;SDS011;7845;53.698;10.078;2023-03-01T11:01:01;12.70;;;6.87;;
15486;SDS011;7845;53.698;10.078;2023-03-01T11:06:30;11.50;;;6.60;;
15486;SDS011;7845;53.698;10.078;2023-03-01T11:08:55;10.30;;;5.77;;
15486;SDS011;7845;53.698;10.078;2023-03-01T11:11:22;12.23;;;6.70;;
15486;SDS011;7845;53.698;10.078;2023-03-01T11:13:59;11.93;;;6.73;;
15486;SDS011;7845;53.698;10.078;2023-03-01T11:19:12;11.73;;;6.97;;
15486;SDS011;7845;53.698;10.078;2023-03-01T11:21:57;10.50;;;6.40;;
15486;SDS011;7845;53.698;10.078;2023-03-01T11:24:46;10.67;;;5.60;;
15486;SDS011;7845;53.698;10.078;2023-03-01T11:27:16;10.03;;;5.43;;
15486;SDS011;7845;53.698;10.078;2023-03-01T11:29:45;10.90;;;6.10;;
15486;SDS011;7845;53.698;10.078;2023-03-01T11:32:16;11.03;;;6.20;;
15486;SDS011;7845;53.698;10.078;2023-03-01T11:34:46;11.30;;;6.20;;
15486;SDS011;7845;53.698;10.078;2023-03-01T11:37:35;11.20;;;6.47;;
15486;SDS011;7845;53.698;10.078;2023-03-01T11:40:21;8.97;;;5.70;;
15486;SDS011;7845;53.698;10.078;2023-03-01T11:43:11;9.17;;;5.07;;
15486;SDS011;7845;53.698;10.078;2023-03-01T11:56:55;8.10;;;4.90;;
15486;SDS011;7845;53.698;10.078;2023-03-01T12:02:21;8.57;;;4.67;;
15486;SDS011;7845;53.698;10.078;2023-03-01T12:10:26;7.67;;;3.87;;
15486;SDS011;7845;53.698;10.078;2023-03-01T12:15:39;8.10;;;4.47;;
15486;SDS011;7845;53.698;10.078;2023-03-01T12:18:28;7.30;;;3.90;;
15486;SDS011;7845;53.698;10.078;2023-03-01T12:21:04;8.57;;;5.23;;
15486;SDS011;7845;53.698;10.078;2023-03-01T12:23:57;6.80;;;3.40;;
15486;SDS011;7845;53.698;10.078;2023-03-01T12:29:31;8.13;;;4.43;;
15486;SDS011;7845;53.698;10.078;2023-03-01T12:35:11;6.00;;;3.20;;
15486;SDS011;7845;53.698;10.078;2023-03-01T12:37:56;6.67;;;3.50;;
15486;SDS011;7845;53.698;10.078;2023-03-01T12:46:01;7.07;;;4.40;;
15486;SDS011;7845;53.698;10.078;2023-03-01T12:51:30;7.57;;;4.00;;
15486;SDS011;7845;53.698;10.078;2023-03-01T12:53:58;6.27;;;3.63;;
15486;SDS011;7845;53.698;10.078;2023-03-01T12:56:32;6.67;;;3.93;;
15486;SDS011;7845;53.698;10.078;2023-03-01T12:59:17;8.40;;;4.63;;
15486;SDS011;7845;53.698;10.078;2023-03-01T13:01:56;13.67;;;5.70;;
15486;SDS011;7845;53.698;10.078;2023-03-01T13:07:37;9.37;;;5.40;;
15486;SDS011;7845;53.698;10.078;2023-03-01T13:17:49;7.90;;;4.87;;
15486;SDS011;7845;53.698;10.078;2023-03-01T13:20:18;7.83;;;4.63;;
15486;SDS011;7845;53.698;10.078;2023-03-01T13:22:46;8.63;;;5.50;;
15486;SDS011;7845;53.698;10.078;2023-03-01T13:25:16;7.07;;;4.13;;
15486;SDS011;7845;53.698;10.078;2023-03-01T13:27:44;10.70;;;6.50;;
15486;SDS011;7845;53.698;10.078;2023-03-01T13:35:49;8.40;;;4.77;;
15486;SDS011;7845;53.698;10.078;2023-03-01T13:41:13;8.03;;;4.43;;
15486;SDS011;7845;53.698;10.078;2023-03-01T13:43:40;8.67;;;5.83;;
15486;SDS011;7845;53.698;10.078;2023-03-01T13:46:18;8.77;;;5.00;;
15486;SDS011;7845;53.698;10.078;2023-03-01T13:48:47;7.83;;;4.53;;
15486;SDS011;7845;53.698;10.078;2023-03-01T13:51:15;8.00;;;4.60;;
15486;SDS011;7845;53.698;10.078;2023-03-01T13:53:45;7.10;;;4.57;;
15486;SDS011;7845;53.698;10.078;2023-03-01T13:58:44;8.60;;;5.90;;
15486;SDS011;7845;53.698;10.078;2023-03-01T14:01:27;8.53;;;5.47;;
15486;SDS011;7845;53.698;10.078;2023-03-01T14:03:57;7.13;;;4.80;;
15486;SDS011;7845;53.698;10.078;2023-03-01T14:06:25;8.00;;;5.07;;
15486;SDS011;7845;53.698;10.078;2023-03-01T14:09:00;7.50;;;5.10;;
15486;SDS011;7845;53.698;10.078;2023-03-01T14:19:59;8.17;;;4.90;;
15486;SDS011;7845;53.698;10.078;2023-03-01T14:22:30;8.07;;;5.30;;
15486;SDS011;7845;53.698;10.078;2023-03-01T14:25:02;8.03;;;4.80;;
15486;SDS011;7845;53.698;10.078;2023-03-01T14:27:41;6.40;;;3.77;;
15486;SDS011;7845;53.698;10.078;2023-03-01T14:30:11;9.40;;;5.53;;
15486;SDS011;7845;53.698;10.078;2023-03-01T14:32:41;8.20;;;5.20;;
15486;SDS011;7845;53.698;10.078;2023-03-01T14:35:20;8.20;;;4.93;;
15486;SDS011;7845;53.698;10.078;2023-03-01T14:37:47;8.60;;;4.90;;
15486;SDS011;7845;53.698;10.078;2023-03-01T14:40:25;7.93;;;5.20;;
15486;SDS011;7845;53.698;10.078;2023-03-01T14:42:57;8.63;;;5.50;;
15486;SDS011;7845;53.698;10.078;2023-03-01T14:45:25;7.10;;;4.30;;
15486;SDS011;7845;53.698;10.078;2023-03-01T14:47:52;7.90;;;4.70;;
15486;SDS011;7845;53.698;10.078;2023-03-01T14:52:52;8.30;;;5.83;;
15486;SDS011;7845;53.698;10.078;2023-03-01T14:55:21;12.03;;;5.20;;
15486;SDS011;7845;53.698;10.078;2023-03-01T14:57:52;8.30;;;4.70;;
15486;SDS011;7845;53.698;10.078;2023-03-01T15:02:46;9.60;;;5.50;;
15486;SDS011;7845;53.698;10.078;2023-03-01T15:05:13;8.23;;;4.87;;
15486;SDS011;7845;53.698;10.078;2023-03-01T15:07:42;8.77;;;5.30;;
15486;SDS011;7845;53.698;10.078;2023-03-01T15:10:20;8.03;;;4.27;;
15486;SDS011;7845;53.698;10.078;2023-03-01T15:12:48;7.90;;;4.20;;
15486;SDS011;7845;53.698;10.078;2023-03-01T15:18:14;7.67;;;4.30;;
15486;SDS011;7845;53.698;10.078;2023-03-01T15:20:42;6.30;;;3.60;;
15486;SDS011;7845;53.698;10.078;2023-03-01T15:23:19;6.80;;;3.80;;
15486;SDS011;7845;53.698;10.078;2023-03-01T15:25:48;9.00;;;5.47;;
15486;SDS011;7845;53.698;10.078;2023-03-01T15:28:22;8.60;;;5.10;;
15486;SDS011;7845;53.698;10.078;2023-03-01T15:30:57;10.43;;;5.27;;
15486;SDS011;7845;53.698;10.078;2023-03-01T15:33:30;8.27;;;4.63;;
15486;SDS011;7845;53.698;10.078;2023-03-01T15:35:59;9.20;;;5.43;;
15486;SDS011;7845;53.698;10.078;2023-03-01T15:38:35;11.23;;;6.57;;
15486;SDS011;7845;53.698;10.078;2023-03-01T15:41:27;10.87;;;6.40;;
15486;SDS011;7845;53.698;10.078;2023-03-01T15:43:56;12.23;;;6.80;;
15486;SDS011;7845;53.698;10.078;2023-03-01T15:49:00;11.80;;;7.00;;
15486;SDS011;7845;53.698;10.078;2023-03-01T15:51:36;12.10;;;7.30;;
15486;SDS011;7845;53.698;10.078;2023-03-01T15:54:06;13.33;;;7.30;;
15486;SDS011;7845;53.698;10.078;2023-03-01T15:56:42;11.80;;;7.80;;
15486;SDS011;7845;53.698;10.078;2023-03-01T15:59:08;10.87;;;6.63;;
15486;SDS011;7845;53.698;10.078;2023-03-01T16:01:39;12.50;;;7.03;;
15486;SDS011;7845;53.698;10.078;2023-03-01T16:04:11;11.67;;;7.53;;
15486;SDS011;7845;53.698;10.078;2023-03-01T16:06:41;12.80;;;6.90;;
15486;SDS011;7845;53.698;10.078;2023-03-01T16:09:06;11.70;;;6.73;;
15486;SDS011;7845;53.698;10.078;2023-03-01T16:11:32;10.23;;;6.23;;
15486;SDS011;7845;53.698;10.078;2023-03-01T16:13:59;10.60;;;6.43;;
15486;SDS011;7845;53.698;10.078;2023-03-01T16:16:24;13.20;;;7.67;;
15486;SDS011;7845;53.698;10.078;2023-03-01T16:18:49;11.20;;;6.57;;
15486;SDS011;7845;53.698;10.078;2023-03-01T16:21:24;10.20;;;6.43;;
15486;SDS011;7845;53.698;10.078;2023-03-01T16:23:50;8.50;;;5.20;;
15486;SDS011;7845;53.698;10.078;2023-03-01T16:26:16;9.00;;;5.70;;
15486;SDS011;7845;53.698;10.078;2023-03-01T16:28:43;8.53;;;5.47;;
15486;SDS011;7845;53.698;10.078;2023-03-01T16:31:09;7.77;;;4.10;;
15486;SDS011;7845;53.698;10.078;2023-03-01T16:33:35;9.10;;;4.73;;
15486;SDS011;7845;53.698;10.078;2023-03-01T16:36:06;6.83;;;3.63;;
15486;SDS011;7845;53.698;10.078;2023-03-01T16:38:32;6.70;;;4.00;;
15486;SDS011;7845;53.698;10.078;2023-03-01T16:40:58;8.00;;;4.70;;
15486;SDS011;7845;53.698;10.078;2023-03-01T16:43:23;7.10;;;4.17;;
15486;SDS011;7845;53.698;10.078;2023-03-01T16:45:49;9.90;;;5.60;;
15486;SDS011;7845;53.698;10.078;2023-03-01T16:48:14;7.20;;;4.50;;
15486;SDS011;7845;53.698;10.078;2023-03-01T16:50:40;6.90;;;3.87;;
15486;SDS011;7845;53.698;10.078;2023-03-01T16:53:05;7.50;;;4.00;;